Wetterdaten: Woche 03.02.03 - 09.02.03 (KW6)
Datum Zeit Temperatur Luftfeuchte Luftdruck Regenmenge Wind Richtung Taupunkt Windchill
03.02.2003 00:00 1.1 C 79 % 1010.2 hPa 0.0 l/m 4.8 km/h (1 Bft) SW -2.1 C -0.2 C
03.02.2003 01:00 0.6 C 88 % 1009.5 hPa 0.3 l/m 1.4 km/h (1 Bft) O-SO -1.2 C 0.3 C
03.02.2003 02:00 1.2 C 89 % 1009.0 hPa 0.3 l/m 5.0 km/h (1 Bft) W-NW -0.4 C -0.1 C
03.02.2003 03:00 1.8 C 91 % 1008.1 hPa 0.9 l/m 17.9 km/h (3 Bft) W-NW 0.6 C -2.0 C
03.02.2003 04:00 1.6 C 92 % 1008.6 hPa 1.5 l/m 12.8 km/h (3 Bft) W-NW 0.4 C -1.4 C
03.02.2003 05:00 1.3 C 94 % 1008.5 hPa 0.0 l/m 9.7 km/h (2 Bft) S-SO 0.5 C -1.4 C
03.02.2003 06:00 1.9 C 93 % 1008.1 hPa 0.0 l/m 13.9 km/h (3 Bft) S-SW 0.8 C -1.6 C
03.02.2003 07:00 2.4 C 89 % 1008.1 hPa 0.0 l/m 15.8 km/h (3 Bft) S 0.7 C -1.4 C
03.02.2003 08:00 2.8 C 84 % 1007.5 hPa 0.0 l/m 16.8 km/h (3 Bft) S-SW 0.4 C -1.1 C
03.02.2003 09:00 3.5 C 74 % 1007.1 hPa 0.0 l/m 17.5 km/h (3 Bft) W-SW -0.7 C -0.4 C
03.02.2003 10:00 4.0 C 70 % 1006.0 hPa 0.0 l/m 22.3 km/h (4 Bft) W-SW -1.0 C -0.4 C
03.02.2003 11:00 3.7 C 74 % 1005.3 hPa 0.3 l/m 17.9 km/h (3 Bft) W-SW -0.5 C -0.0 C
03.02.2003 12:00 2.8 C 84 % 1003.9 hPa 0.6 l/m 23.0 km/h (4 Bft) W-SW 0.3 C -2.0 C
03.02.2003 13:00 2.4 C 88 % 1002.2 hPa 1.5 l/m 15.6 km/h (3 Bft) SW 0.6 C -1.3 C
03.02.2003 14:00 1.9 C 91 % 1001.2 hPa 1.8 l/m 11.2 km/h (2 Bft) S 0.5 C -1.0 C
03.02.2003 15:00 2.3 C 89 % 999.7 hPa 0.0 l/m 13.5 km/h (3 Bft) S 0.7 C -1.0 C
03.02.2003 16:00 2.8 C 85 % 998.2 hPa 0.3 l/m 13.7 km/h (3 Bft) S 0.5 C -0.6 C
03.02.2003 17:00 2.8 C 91 % 997.1 hPa 1.2 l/m 10.0 km/h (2 Bft) W-SW 1.5 C 0.6 C
03.02.2003 18:00 2.6 C 93 % 996.2 hPa 2.1 l/m 3.2 km/h (1 Bft) SO 1.5 C 2.0 C
03.02.2003 19:00 1.7 C 95 % 995.2 hPa 5.1 l/m 1.3 km/h (1 Bft) SO 1.0 C 1.6 C
03.02.2003 20:00 0.3 C 97 % 994.6 hPa 2.7 l/m 3.7 km/h (1 Bft) SO -0.1 C -0.9 C
03.02.2003 21:00 -0.2 C 99 % 994.2 hPa 1.8 l/m 4.4 km/h (1 Bft) SO -0.4 C -1.5 C
03.02.2003 22:00 -0.1 C 100 % 994.5 hPa 1.2 l/m 3.2 km/h (1 Bft) SO -0.1 C -0.9 C
03.02.2003 23:00 1.3 C 98 % 994.7 hPa 0.0 l/m 21.5 km/h (4 Bft) NW 1.0 C -3.2 C
04.02.2003 00:00 2.0 C 97 % 995.7 hPa 0.0 l/m 23.4 km/h (4 Bft) W-NW 1.5 C -3.0 C
04.02.2003 01:00 1.8 C 94 % 995.2 hPa 0.0 l/m 20.0 km/h (4 Bft) W-NW 1.0 C -2.9 C
04.02.2003 02:00 1.5 C 92 % 994.6 hPa 0.0 l/m 13.2 km/h (3 Bft) W-NW 0.3 C -2.0 C
04.02.2003 03:00 0.7 C 94 % 994.1 hPa 0.0 l/m 2.7 km/h (1 Bft) W-NW -0.1 C 0.2 C
04.02.2003 04:00 0.6 C 95 % 993.2 hPa 0.0 l/m 0.6 km/h (0 Bft) W -0.1 C 0.5 C
04.02.2003 05:00 0.6 C 94 % 992.6 hPa 0.0 l/m 1.6 km/h (1 Bft) SO -0.2 C 0.3 C
04.02.2003 06:00 0.8 C 94 % 992.6 hPa 0.3 l/m 3.5 km/h (1 Bft) W-NW 0.0 C -0.2 C
04.02.2003 07:00 0.2 C 94 % 992.6 hPa 0.0 l/m 5.1 km/h (1 Bft) SO -0.6 C -1.4 C
04.02.2003 08:00 0.1 C 97 % 992.6 hPa 0.6 l/m 1.8 km/h (1 Bft) SO -0.4 C -0.4 C
04.02.2003 09:00 -0.4 C 98 % 992.6 hPa 1.2 l/m 2.4 km/h (1 Bft) SO -0.7 C -1.0 C
04.02.2003 10:00 -0.5 C 98 % 993.7 hPa 0.9 l/m 0.3 km/h (0 Bft) N -0.8 C -0.5 C
04.02.2003 11:00 0.0 C 94 % 995.0 hPa 0.0 l/m 1.5 km/h (1 Bft) SO -0.8 C -0.2 C
04.02.2003 12:00 -0.1 C 88 % 995.7 hPa 0.0 l/m 18.5 km/h (3 Bft) W-NW -1.9 C -5.0 C
04.02.2003 13:00 -0.8 C 95 % 995.8 hPa 0.9 l/m 3.8 km/h (1 Bft) W-NW -1.6 C -2.1 C
04.02.2003 14:00 -0.2 C 91 % 996.7 hPa 0.3 l/m 2.9 km/h (1 Bft) NW -1.4 C -1.0 C
04.02.2003 15:00 -0.2 C 88 % 997.2 hPa 0.0 l/m 11.1 km/h (2 Bft) NW -2.0 C -3.6 C
04.02.2003 16:00 -0.3 C 87 % 998.1 hPa 0.0 l/m 12.9 km/h (3 Bft) W-NW -2.1 C -4.2 C
04.02.2003 17:00 -0.9 C 88 % 998.9 hPa 0.0 l/m 13.5 km/h (3 Bft) W-NW -2.6 C -5.2 C
04.02.2003 18:00 -2.1 C 89 % 999.9 hPa 0.0 l/m 7.9 km/h (2 Bft) W-NW -3.6 C -4.8 C
04.02.2003 19:00 -2.5 C 88 % 1001.0 hPa 0.0 l/m 1.5 km/h (1 Bft) W-NW -4.3 C -2.8 C
04.02.2003 20:00 -2.5 C 92 % 1001.9 hPa 0.0 l/m 0.9 km/h (0 Bft) W-NW -3.7 C -2.6 C
04.02.2003 21:00 -3.1 C 92 % 1002.7 hPa 0.0 l/m 1.9 km/h (1 Bft) W-NW -4.3 C -3.8 C
04.02.2003 22:00 -3.4 C 93 % 1003.2 hPa 0.0 l/m 5.6 km/h (1 Bft) W-NW -4.4 C -5.2 C
04.02.2003 23:00 -3.5 C 93 % 1004.1 hPa 0.0 l/m 9.0 km/h (2 Bft) W-NW -4.5 C -6.4 C
05.02.2003 00:00 -3.0 C 93 % 1005.0 hPa 0.0 l/m 4.5 km/h (1 Bft) W-NW -4.0 C -4.5 C
05.02.2003 01:00 -3.0 C 92 % 1005.0 hPa 0.0 l/m 0.9 km/h (0 Bft) W-NW -4.2 C -3.3 C
05.02.2003 02:00 -2.8 C 91 % 1005.0 hPa 0.0 l/m 4.9 km/h (1 Bft) W-NW -4.2 C -4.4 C
05.02.2003 03:00 -2.7 C 86 % 1004.1 hPa 0.3 l/m 4.8 km/h (1 Bft) W-NW -4.7 C -4.3 C
05.02.2003 04:00 -2.7 C 91 % 1004.0 hPa 0.3 l/m 6.6 km/h (2 Bft) W-NW -4.0 C -5.1 C
05.02.2003 05:00 -2.5 C 91 % 1004.0 hPa 0.0 l/m 2.5 km/h (1 Bft) W-NW -3.8 C -3.2 C
05.02.2003 06:00 -1.8 C 91 % 1004.0 hPa 0.0 l/m 15.4 km/h (3 Bft) W-NW -3.0 C -5.6 C
05.02.2003 07:00 -1.4 C 89 % 1004.5 hPa 0.3 l/m 31.3 km/h (5 Bft) W-NW -3.0 C -8.4 C
05.02.2003 08:00 -1.4 C 88 % 1005.0 hPa 0.0 l/m 29.4 km/h (5 Bft) W -3.1 C -8.1 C
05.02.2003 09:00 -1.0 C 83 % 1005.0 hPa 0.0 l/m 27.4 km/h (4 Bft) W -3.5 C -7.4 C
05.02.2003 10:00 -1.1 C 85 % 1005.7 hPa 0.0 l/m 30.9 km/h (5 Bft) W-NW -3.3 C -7.9 C
05.02.2003 11:00 -1.2 C 85 % 1006.1 hPa 0.3 l/m 33.7 km/h (5 Bft) W-NW -3.4 C -8.3 C
05.02.2003 12:00 -0.9 C 81 % 1007.1 hPa 0.0 l/m 31.5 km/h (5 Bft) W-NW -3.8 C -7.7 C
05.02.2003 13:00 -0.4 C 77 % 1006.9 hPa 0.0 l/m 33.3 km/h (5 Bft) W-NW -4.0 C -7.3 C
05.02.2003 14:00 -1.3 C 81 % 1007.4 hPa 0.0 l/m 30.7 km/h (5 Bft) W-NW -4.1 C -8.2 C
05.02.2003 15:00 -1.6 C 86 % 1008.1 hPa 0.0 l/m 23.4 km/h (4 Bft) W-NW -3.7 C -7.7 C
05.02.2003 16:00 -1.5 C 84 % 1008.6 hPa 0.3 l/m 20.4 km/h (4 Bft) W-NW -3.8 C -7.0 C
05.02.2003 17:00 -1.7 C 83 % 1009.2 hPa 0.0 l/m 17.5 km/h (3 Bft) W-NW -4.2 C -6.5 C
05.02.2003 18:00 -1.8 C 87 % 1010.1 hPa 0.0 l/m 10.4 km/h (2 Bft) W-NW -3.7 C -4.9 C
05.02.2003 19:00 -1.9 C 88 % 1010.5 hPa 0.0 l/m 21.5 km/h (4 Bft) W-NW -3.6 C -7.8 C
05.02.2003 20:00 -1.7 C 87 % 1011.3 hPa 0.3 l/m 22.7 km/h (4 Bft) W-NW -3.5 C -7.6 C
05.02.2003 21:00 -1.9 C 88 % 1012.3 hPa 0.0 l/m 22.8 km/h (4 Bft) W-NW -3.6 C -8.0 C
05.02.2003 22:00 -1.8 C 87 % 1013.0 hPa 0.0 l/m 24.9 km/h (4 Bft) W-NW -3.6 C -8.1 C
05.02.2003 23:00 -2.1 C 87 % 1013.5 hPa 0.0 l/m 20.6 km/h (4 Bft) W-NW -3.9 C -7.8 C
06.02.2003 00:00 -2.0 C 87 % 1014.4 hPa 0.0 l/m 5.9 km/h (2 Bft) W-NW -3.9 C -3.9 C
06.02.2003 01:00 -1.9 C 84 % 1014.8 hPa 0.0 l/m 1.4 km/h (1 Bft) SW -4.2 C -2.4 C
06.02.2003 02:00 -1.9 C 84 % 1015.4 hPa 0.0 l/m 2.5 km/h (1 Bft) SO -4.2 C -2.7 C
06.02.2003 03:00 -1.9 C 85 % 1015.4 hPa 0.0 l/m 6.5 km/h (2 Bft) SO -4.0 C -3.9 C
06.02.2003 04:00 -2.0 C 88 % 1015.4 hPa 0.0 l/m 19.7 km/h (3 Bft) W-NW -3.6 C -7.5 C
06.02.2003 05:00 -1.7 C 88 % 1015.5 hPa 0.0 l/m 32.4 km/h (5 Bft) W-NW -3.5 C -8.9 C
06.02.2003 06:00 -1.4 C 86 % 1016.4 hPa 0.0 l/m 26.7 km/h (4 Bft) W-NW -3.5 C -7.9 C
06.02.2003 07:00 -1.7 C 84 % 1016.7 hPa 0.0 l/m 13.2 km/h (3 Bft) W-NW -4.1 C -5.4 C
06.02.2003 08:00 -1.7 C 88 % 1017.5 hPa 0.6 l/m 6.9 km/h (2 Bft) W-NW -3.5 C -3.7 C
06.02.2003 09:00 -1.3 C 85 % 1017.7 hPa 0.0 l/m 24.4 km/h (4 Bft) W-NW -3.5 C -7.4 C
06.02.2003 10:00 -0.7 C 79 % 1018.5 hPa 0.0 l/m 31.7 km/h (5 Bft) W-NW -3.8 C -7.5 C
06.02.2003 11:00 -0.2 C 75 % 1019.1 hPa 0.0 l/m 32.0 km/h (5 Bft) W-NW -4.1 C -6.9 C
06.02.2003 12:00 0.3 C 73 % 1019.8 hPa 0.0 l/m 25.5 km/h (4 Bft) W-NW -4.0 C -5.5 C
06.02.2003 13:00 0.6 C 69 % 1020.6 hPa 0.0 l/m 28.7 km/h (4 Bft) W-NW -4.5 C -5.5 C
06.02.2003 14:00 0.5 C 70 % 1021.0 hPa 0.0 l/m 19.9 km/h (4 Bft) W-NW -4.3 C -4.5 C
06.02.2003 15:00 0.5 C 70 % 1021.7 hPa 0.0 l/m 19.7 km/h (3 Bft) W-NW -4.4 C -4.5 C
06.02.2003 16:00 -0.0 C 80 % 1022.7 hPa 0.0 l/m 13.1 km/h (3 Bft) W-NW -3.1 C -3.7 C
06.02.2003 17:00 -0.7 C 81 % 1023.3 hPa 0.0 l/m 12.6 km/h (3 Bft) W-NW -3.6 C -4.7 C
06.02.2003 18:00 -2.0 C 86 % 1023.9 hPa 0.0 l/m 11.4 km/h (2 Bft) W-NW -4.0 C -5.9 C
06.02.2003 19:00 -1.8 C 87 % 1024.8 hPa 0.0 l/m 6.5 km/h (2 Bft) W-NW -3.6 C -3.8 C
06.02.2003 20:00 -3.2 C 87 % 1025.4 hPa 0.0 l/m 5.1 km/h (1 Bft) O-SO -5.1 C -5.1 C
06.02.2003 21:00 -4.3 C 88 % 1025.8 hPa 0.0 l/m 7.1 km/h (2 Bft) O-SO -6.1 C -7.4 C
06.02.2003 22:00 -4.2 C 89 % 1025.8 hPa 0.0 l/m 8.4 km/h (2 Bft) O-SO -5.8 C -7.8 C
06.02.2003 23:00 -4.9 C 90 % 1025.8 hPa 0.0 l/m 6.0 km/h (2 Bft) O-SO -6.2 C -7.2 C
07.02.2003 00:00 -4.8 C 92 % 1025.9 hPa 0.0 l/m 4.9 km/h (1 Bft) SO -5.9 C -6.7 C
07.02.2003 01:00 -4.9 C 89 % 1026.8 hPa 0.0 l/m 1.8 km/h (1 Bft) SO -6.4 C -5.6 C
07.02.2003 02:00 -6.8 C 86 % 1026.8 hPa 0.0 l/m 4.1 km/h (1 Bft) SO -8.7 C -8.1 C
07.02.2003 03:00 -6.2 C 91 % 1026.8 hPa 0.0 l/m 2.1 km/h (1 Bft) O-SO -7.5 C -6.8 C
07.02.2003 04:00 -6.3 C 90 % 1026.8 hPa 0.0 l/m 1.4 km/h (1 Bft) O-SO -7.6 C -6.6 C
07.02.2003 05:00 -5.7 C 89 % 1026.8 hPa 0.0 l/m 1.5 km/h (1 Bft) SO -7.2 C -6.4 C
07.02.2003 06:00 -5.6 C 87 % 1026.8 hPa 0.0 l/m 1.6 km/h (1 Bft) SO -7.4 C -6.2 C
07.02.2003 07:00 -5.8 C 88 % 1026.8 hPa 0.0 l/m 1.5 km/h (1 Bft) SO -7.5 C -6.2 C
07.02.2003 08:00 -5.9 C 85 % 1027.7 hPa 0.0 l/m 1.5 km/h (1 Bft) S-SW -8.0 C -6.6 C
07.02.2003 09:00 -5.0 C 78 % 1027.9 hPa 0.0 l/m 1.7 km/h (1 Bft) SO -8.2 C -5.6 C
07.02.2003 10:00 -3.9 C 71 % 1027.9 hPa 0.0 l/m 5.2 km/h (1 Bft) SO -8.4 C -5.6 C
07.02.2003 11:00 -3.2 C 67 % 1027.5 hPa 0.0 l/m 7.6 km/h (2 Bft) SO -8.3 C -6.0 C
07.02.2003 12:00 -1.4 C 62 % 1026.8 hPa 0.0 l/m 9.3 km/h (2 Bft) SO -7.6 C -4.5 C
07.02.2003 13:00 -0.3 C 59 % 1026.3 hPa 0.0 l/m 10.2 km/h (2 Bft) SO -7.4 C -3.6 C
07.02.2003 14:00 -0.0 C 59 % 1025.8 hPa 0.0 l/m 8.7 km/h (2 Bft) SO -7.0 C -2.5 C
07.02.2003 15:00 -0.5 C 63 % 1025.8 hPa 0.0 l/m 6.4 km/h (2 Bft) SO -6.8 C -2.5 C
07.02.2003 16:00 -0.6 C 65 % 1025.8 hPa 0.0 l/m 2.9 km/h (1 Bft) SO -6.3 C -1.4 C
07.02.2003 17:00 -0.9 C 68 % 1025.8 hPa 0.0 l/m 3.5 km/h (1 Bft) SO -6.1 C -1.9 C
07.02.2003 18:00 -1.0 C 69 % 1026.1 hPa 0.0 l/m 0.6 km/h (0 Bft) S-SW -5.9 C -1.1 C
07.02.2003 19:00 -1.1 C 71 % 1026.7 hPa 0.0 l/m 0.6 km/h (0 Bft) SO -5.7 C -1.1 C
07.02.2003 20:00 -1.1 C 71 % 1026.8 hPa 0.0 l/m 0.0 km/h (0 Bft) - - -5.6 C -1.1 C
07.02.2003 21:00 -1.1 C 71 % 1026.8 hPa 0.0 l/m 0.1 km/h (0 Bft) - - -5.7 C -1.1 C
07.02.2003 22:00 -1.1 C 72 % 1026.8 hPa 0.0 l/m 1.0 km/h (0 Bft) SO -5.5 C -1.2 C
07.02.2003 23:00 -1.3 C 72 % 1026.8 hPa 0.0 l/m 0.7 km/h (0 Bft) SO -5.7 C -1.3 C
08.02.2003 00:00 -1.3 C 74 % 1026.8 hPa 0.0 l/m 0.8 km/h (0 Bft) SO -5.4 C -1.4 C
08.02.2003 01:00 -1.3 C 74 % 1026.8 hPa 0.0 l/m 0.7 km/h (0 Bft) SO -5.3 C -1.4 C
08.02.2003 02:00 -1.4 C 75 % 1026.8 hPa 0.0 l/m 2.4 km/h (1 Bft) SO -5.2 C -2.1 C
08.02.2003 03:00 -1.6 C 77 % 1026.8 hPa 0.0 l/m 1.2 km/h (1 Bft) O-SO -5.2 C -1.8 C
08.02.2003 04:00 -1.7 C 77 % 1026.3 hPa 0.0 l/m 0.0 km/h (0 Bft) - - -5.1 C -1.7 C
08.02.2003 05:00 -1.7 C 80 % 1026.5 hPa 0.0 l/m 0.1 km/h (0 Bft) - - -4.7 C -1.7 C
08.02.2003 06:00 -1.8 C 83 % 1026.8 hPa 0.0 l/m 0.0 km/h (0 Bft) - - -4.3 C -1.8 C
08.02.2003 07:00 -1.8 C 84 % 1026.3 hPa 0.0 l/m 0.0 km/h (0 Bft) - - -4.1 C -1.8 C
08.02.2003 08:00 -1.6 C 84 % 1026.6 hPa 0.0 l/m 0.0 km/h (0 Bft) - - -4.0 C -1.6 C
08.02.2003 09:00 -0.7 C 80 % 1026.8 hPa 0.0 l/m 0.0 km/h (0 Bft) - - -3.8 C -0.7 C
08.02.2003 10:00 0.1 C 74 % 1026.8 hPa 0.0 l/m 0.2 km/h (0 Bft) W -4.0 C 0.1 C
08.02.2003 11:00 1.2 C 68 % 1026.8 hPa 0.0 l/m 0.0 km/h (0 Bft) - - -4.0 C 1.2 C
08.02.2003 12:00 1.2 C 67 % 1025.9 hPa 0.0 l/m 0.3 km/h (0 Bft) S-SO -4.2 C 1.2 C
08.02.2003 13:00 1.9 C 63 % 1025.8 hPa 0.0 l/m 0.1 km/h (0 Bft) - - -4.4 C 1.9 C
08.02.2003 14:00 2.0 C 64 % 1025.1 hPa 0.0 l/m 0.5 km/h (0 Bft) SO -4.0 C 2.0 C
08.02.2003 15:00 2.0 C 64 % 1024.8 hPa 0.0 l/m 1.3 km/h (1 Bft) W-NW -4.1 C 1.9 C
08.02.2003 16:00 1.7 C 66 % 1024.8 hPa 0.0 l/m 0.1 km/h (0 Bft) W -3.9 C 1.7 C
08.02.2003 17:00 0.9 C 71 % 1024.8 hPa 0.0 l/m 0.0 km/h (0 Bft) - - -3.7 C 0.9 C
08.02.2003 18:00 0.3 C 79 % 1024.8 hPa 0.0 l/m 0.7 km/h (0 Bft) SO -2.9 C 0.2 C
08.02.2003 19:00 0.1 C 81 % 1024.8 hPa 0.0 l/m 0.0 km/h (0 Bft) - - -2.7 C 0.1 C
08.02.2003 20:00 -0.2 C 84 % 1024.8 hPa 0.0 l/m 0.0 km/h (0 Bft) - - -2.5 C -0.2 C
08.02.2003 21:00 -0.6 C 87 % 1024.8 hPa 0.0 l/m 1.3 km/h (1 Bft) SO -2.5 C -0.9 C
08.02.2003 22:00 -0.9 C 89 % 1024.5 hPa 0.0 l/m 0.0 km/h (0 Bft) - - -2.5 C -0.9 C
08.02.2003 23:00 -0.8 C 91 % 1023.7 hPa 0.0 l/m 0.5 km/h (0 Bft) NW -2.1 C -0.8 C
09.02.2003 00:00 -1.2 C 93 % 1023.7 hPa 0.0 l/m 0.0 km/h (0 Bft) - - -2.3 C -1.2 C
09.02.2003 01:00 -2.7 C 92 % 1023.7 hPa 0.0 l/m 0.0 km/h (0 Bft) - - -3.8 C -2.7 C
09.02.2003 02:00 -2.9 C 94 % 1023.7 hPa 0.0 l/m 0.6 km/h (0 Bft) O -3.8 C -3.0 C
09.02.2003 03:00 -3.0 C 94 % 1023.7 hPa 0.0 l/m 0.0 km/h (0 Bft) - - -3.8 C -3.0 C
09.02.2003 04:00 -2.5 C 95 % 1023.2 hPa 0.0 l/m 0.0 km/h (0 Bft) - - -3.1 C -2.5 C
09.02.2003 05:00 -1.9 C 98 % 1022.7 hPa 0.0 l/m 0.0 km/h (0 Bft) - - -2.2 C -1.9 C
09.02.2003 06:00 -1.7 C 98 % 1022.7 hPa 0.0 l/m 0.0 km/h (0 Bft) - - -2.0 C -1.7 C
09.02.2003 07:00 -1.3 C 98 % 1022.7 hPa 0.0 l/m 0.0 km/h (0 Bft) - - -1.6 C -1.3 C
09.02.2003 08:00 -0.9 C 97 % 1022.4 hPa 0.0 l/m 0.0 km/h (0 Bft) - - -1.4 C -0.9 C
09.02.2003 09:00 -0.2 C 94 % 1021.6 hPa 0.0 l/m 0.1 km/h (0 Bft) O-SO -1.1 C -0.2 C
09.02.2003 10:00 0.6 C 88 % 1021.6 hPa 0.0 l/m 8.2 km/h (2 Bft) O-SO -1.1 C -1.8 C
09.02.2003 11:00 1.1 C 82 % 1021.6 hPa 0.0 l/m 4.3 km/h (1 Bft) O-SO -1.6 C -0.0 C
09.02.2003 12:00 1.4 C 78 % 1020.6 hPa 0.0 l/m 5.1 km/h (1 Bft) O-SO -2.0 C 0.0 C
09.02.2003 13:00 1.7 C 74 % 1019.6 hPa 0.0 l/m 4.9 km/h (1 Bft) O -2.4 C 0.5 C
09.02.2003 14:00 2.0 C 71 % 1019.6 hPa 0.0 l/m 2.6 km/h (1 Bft) O-SO -2.7 C 1.4 C
09.02.2003 15:00 1.8 C 72 % 1019.6 hPa 0.0 l/m 4.3 km/h (1 Bft) O-SO -2.7 C 0.8 C
09.02.2003 16:00 1.5 C 73 % 1019.6 hPa 0.0 l/m 0.0 km/h (0 Bft) - - -2.9 C 1.5 C
09.02.2003 17:00 1.2 C 71 % 1020.4 hPa 0.0 l/m 3.9 km/h (1 Bft) O-SO -3.5 C -0.0 C
09.02.2003 18:00 1.0 C 69 % 1020.6 hPa 0.0 l/m 0.1 km/h (0 Bft) - - -4.0 C 1.0 C
09.02.2003 19:00 0.7 C 73 % 1020.6 hPa 0.0 l/m 1.5 km/h (1 Bft) SO -3.6 C 0.3 C
09.02.2003 20:00 0.5 C 75 % 1020.6 hPa 0.0 l/m 0.5 km/h (0 Bft) O-SO -3.5 C 0.4 C
09.02.2003 21:00 0.3 C 77 % 1020.6 hPa 0.0 l/m 1.1 km/h (1 Bft) O-SO -3.2 C 0.1 C
09.02.2003 22:00 0.2 C 77 % 1020.6 hPa 0.0 l/m 4.1 km/h (1 Bft) O-SO -3.4 C -1.1 C
09.02.2003 23:00 -0.0 C 79 % 1021.2 hPa 0.0 l/m 5.0 km/h (1 Bft) O-SO -3.3 C -1.5 C
Min-Datum _ 07.02.03 07.02.03 04.02.03 - 03.02.03 - 07.02.03 07.02.03
_ Min-Zeit 02:55 13:40 05:00 - 00:42 - 02:55 02:34
Minimum _ -7.4 C 57 % 992.6 hPa - 0.0 km/h (0 Bft) - -9.2 C -11.0 C
Max-Datum _ 03.02.03 03.02.03 07.02.03 03.02.03 05.02.03 - 03.02.03 03.02.03
_ Max-Zeit 10:48 22:04 08:13 18:00 10:41 - 18:42 11:24
Maximum _ 4.3 C 100 % 1027.9 hPa 5.1 l/m 49.7 km/h
W-NW (6 Bft)
- 1.7 C 3.8 C
Durchschnitt _ -0.8 C 84 % 1014.4 hPa #28.2 l/m 8.5 km/h (2 Bft) W-NW -3.3 C -2.9 C

Durchschnitt Minimum Temp.-1.2 C
Durchschnitt Maximum Temp.-0.4 C
© Kaiko 2003